createdAt,value
2022-11-17T00:00:04.435Z,70.74
2022-11-17T00:00:25.496Z,70.71
2022-11-17T00:00:46.606Z,70.68
2022-11-17T00:01:07.681Z,70.68
2022-11-17T00:01:28.729Z,70.66
2022-11-17T00:01:49.790Z,70.63
2022-11-17T00:02:10.905Z,70.58
2022-11-17T00:02:31.985Z,70.56
2022-11-17T00:02:53.124Z,70.59
2022-11-17T00:03:14.222Z,70.57
2022-11-17T00:03:35.626Z,70.54
2022-11-17T00:03:56.841Z,70.51
2022-11-17T00:04:17.877Z,70.50
2022-11-17T00:04:38.936Z,70.47
2022-11-17T00:05:00.002Z,70.48
2022-11-17T00:05:21.029Z,70.47
2022-11-17T00:05:42.129Z,70.41
2022-11-17T00:06:03.170Z,70.42
2022-11-17T00:06:24.306Z,70.39
2022-11-17T00:06:45.328Z,70.39
2022-11-17T00:07:06.459Z,70.36
2022-11-17T00:07:27.565Z,70.37
2022-11-17T00:07:48.581Z,70.33
2022-11-17T00:08:09.638Z,70.29
2022-11-17T00:08:30.681Z,70.28
2022-11-17T00:08:51.761Z,70.31
2022-11-17T00:09:12.790Z,70.28
2022-11-17T00:09:33.853Z,70.28
2022-11-17T00:09:54.901Z,70.28
2022-11-17T00:10:15.942Z,70.27
2022-11-17T00:10:36.995Z,70.33
2022-11-17T00:10:58.062Z,70.27
2022-11-17T00:11:19.115Z,70.28
2022-11-17T00:11:40.173Z,70.25
2022-11-17T00:12:01.310Z,70.27
2022-11-17T00:12:22.964Z,70.21
2022-11-17T00:12:44.206Z,70.21
2022-11-17T00:13:05.255Z,70.20
2022-11-17T00:13:26.337Z,70.20
2022-11-17T00:13:47.364Z,70.13
2022-11-17T00:14:08.427Z,70.14
2022-11-17T00:14:29.482Z,70.12
2022-11-17T00:14:50.530Z,70.13
2022-11-17T00:15:11.578Z,70.13
2022-11-17T00:15:32.741Z,70.10
2022-11-17T00:15:53.750Z,70.13
2022-11-17T00:16:14.809Z,70.10
2022-11-17T00:16:35.862Z,70.13
2022-11-17T00:16:56.927Z,70.11
2022-11-17T00:17:18.037Z,70.12
2022-11-17T00:17:39.076Z,70.11
2022-11-17T00:18:00.108Z,70.09
2022-11-17T00:18:21.207Z,70.08
2022-11-17T00:18:42.238Z,70.02
2022-11-17T00:19:03.285Z,70.01
2022-11-17T00:19:24.343Z,70.06
2022-11-17T00:19:45.461Z,70.02
2022-11-17T00:20:06.482Z,69.99
2022-11-17T00:20:27.537Z,69.99
2022-11-17T00:20:48.637Z,70.01
2022-11-17T00:21:09.693Z,70.00
2022-11-17T00:21:30.752Z,70.06
2022-11-17T00:21:51.804Z,70.03
2022-11-17T00:22:12.855Z,70.06
2022-11-17T00:22:33.926Z,70.09
2022-11-17T00:22:54.994Z,70.04
2022-11-17T00:23:16.090Z,70.09
2022-11-17T00:23:37.352Z,70.10
2022-11-17T00:23:58.416Z,70.09
2022-11-17T00:24:19.463Z,70.13
2022-11-17T00:24:40.520Z,70.06
2022-11-17T00:25:01.567Z,70.08
2022-11-17T00:25:22.683Z,70.09
2022-11-17T00:25:43.706Z,70.09
2022-11-17T00:26:04.747Z,70.06
2022-11-17T00:26:25.790Z,70.06
2022-11-17T00:26:46.865Z,70.07
2022-11-17T00:27:07.908Z,70.12
2022-11-17T00:27:29.058Z,70.07
2022-11-17T00:27:50.102Z,70.07
2022-11-17T00:28:11.151Z,70.13
2022-11-17T00:28:34.558Z,70.06
2022-11-17T00:28:55.692Z,70.13
2022-11-17T00:29:16.720Z,70.10
2022-11-17T00:29:39.408Z,70.11
2022-11-17T00:30:00.559Z,70.13
2022-11-17T00:30:21.631Z,70.09
2022-11-17T00:30:44.033Z,70.10
2022-11-17T00:31:05.153Z,70.07
2022-11-17T00:31:26.217Z,70.10
2022-11-17T00:31:47.286Z,70.08
2022-11-17T00:32:08.342Z,70.05
2022-11-17T00:32:29.400Z,70.09
2022-11-17T00:32:50.460Z,70.04
2022-11-17T00:33:11.512Z,70.09
2022-11-17T00:33:32.820Z,70.08
2022-11-17T00:33:54.088Z,70.08
2022-11-17T00:34:15.121Z,70.10
2022-11-17T00:34:36.160Z,70.10
2022-11-17T00:34:57.209Z,70.12
2022-11-17T00:35:18.251Z,70.11
2022-11-17T00:35:39.328Z,70.11
2022-11-17T00:36:00.417Z,70.16
2022-11-17T00:36:21.453Z,70.13
2022-11-17T00:36:42.492Z,70.17
2022-11-17T00:37:03.570Z,70.16
2022-11-17T00:37:24.628Z,70.17
2022-11-17T00:37:45.680Z,70.22
2022-11-17T00:38:06.738Z,70.25
2022-11-17T00:38:27.785Z,70.31
2022-11-17T00:38:48.842Z,70.33
2022-11-17T00:39:09.918Z,70.33
2022-11-17T00:39:30.993Z,70.30
2022-11-17T00:39:55.268Z,70.29
2022-11-17T00:40:19.109Z,70.31
2022-11-17T00:40:40.121Z,70.30
2022-11-17T00:41:01.164Z,70.34
2022-11-17T00:41:22.272Z,70.30
2022-11-17T00:41:43.287Z,70.30
2022-11-17T00:42:04.333Z,70.30
2022-11-17T00:42:25.398Z,70.28
2022-11-17T00:42:46.458Z,70.32
2022-11-17T00:43:07.484Z,70.34
2022-11-17T00:43:28.557Z,70.32
2022-11-17T00:43:49.605Z,70.34
2022-11-17T00:44:10.676Z,70.37
2022-11-17T00:44:31.738Z,70.33
2022-11-17T00:44:52.786Z,70.32
2022-11-17T00:45:13.851Z,70.35
2022-11-17T00:45:34.939Z,70.30
2022-11-17T00:45:55.965Z,70.31
2022-11-17T00:46:17.018Z,70.33
2022-11-17T00:46:38.167Z,70.30
2022-11-17T00:46:59.188Z,70.27
2022-11-17T00:47:20.224Z,70.30
2022-11-17T00:47:41.260Z,70.24
2022-11-17T00:48:02.308Z,70.27
2022-11-17T00:48:23.356Z,70.27
2022-11-17T00:48:44.401Z,70.21
2022-11-17T00:49:05.470Z,70.29
2022-11-17T00:49:26.573Z,70.28
2022-11-17T00:49:47.599Z,70.26
2022-11-17T00:50:08.650Z,70.26
2022-11-17T00:50:29.709Z,70.29
2022-11-17T00:50:50.753Z,70.32
2022-11-17T00:51:11.805Z,70.34
2022-11-17T00:51:32.929Z,70.31
2022-11-17T00:51:53.965Z,70.35
2022-11-17T00:52:15.031Z,70.32
2022-11-17T00:52:36.083Z,70.32
2022-11-17T00:52:57.174Z,70.34
2022-11-17T00:53:18.222Z,70.38
2022-11-17T00:53:39.278Z,70.39
2022-11-17T00:54:00.347Z,70.41
2022-11-17T00:54:21.391Z,70.33
2022-11-17T00:54:42.454Z,70.35
2022-11-17T00:55:03.572Z,70.37
2022-11-17T00:55:24.707Z,70.41
2022-11-17T00:55:45.830Z,70.45
2022-11-17T00:56:06.884Z,70.45
2022-11-17T00:56:27.988Z,70.39
2022-11-17T00:56:49.029Z,70.36
2022-11-17T00:57:10.046Z,70.35
2022-11-17T00:57:31.102Z,70.37
2022-11-17T00:57:52.332Z,70.42
2022-11-17T00:58:13.328Z,70.37
2022-11-17T00:58:34.388Z,70.40
2022-11-17T00:58:55.483Z,70.36
2022-11-17T00:59:16.545Z,70.44
2022-11-17T00:59:37.603Z,70.42
2022-11-17T00:59:58.724Z,70.49
2022-11-17T01:00:19.757Z,70.51
2022-11-17T01:00:40.809Z,70.51
2022-11-17T01:01:01.917Z,70.50
2022-11-17T01:01:23.102Z,70.51
2022-11-17T01:01:44.223Z,70.52
2022-11-17T01:02:05.272Z,70.52
2022-11-17T01:02:26.396Z,70.49
2022-11-17T01:02:47.423Z,70.50
2022-11-17T01:03:08.470Z,70.54
2022-11-17T01:03:29.528Z,70.55
2022-11-17T01:03:50.643Z,70.58
2022-11-17T01:04:11.700Z,70.60
2022-11-17T01:04:32.778Z,70.57
2022-11-17T01:04:53.813Z,70.53
2022-11-17T01:05:14.866Z,70.52
2022-11-17T01:05:35.929Z,70.57
2022-11-17T01:05:57.000Z,70.56
2022-11-17T01:06:18.062Z,70.61
2022-11-17T01:06:39.141Z,70.66
2022-11-17T01:07:00.275Z,70.65
2022-11-17T01:07:21.351Z,70.74
2022-11-17T01:07:42.373Z,70.77
2022-11-17T01:08:03.464Z,70.77
2022-11-17T01:08:24.480Z,70.78
2022-11-17T01:08:45.534Z,70.75
2022-11-17T01:09:06.572Z,70.73
2022-11-17T01:09:27.624Z,70.78
2022-11-17T01:09:48.694Z,70.78
2022-11-17T01:10:09.733Z,70.80
2022-11-17T01:10:30.826Z,70.85
2022-11-17T01:10:51.875Z,70.97
2022-11-17T01:11:12.921Z,70.91
2022-11-17T01:11:34.046Z,70.97
2022-11-17T01:11:55.076Z,71.00
2022-11-17T01:12:16.163Z,70.96
2022-11-17T01:12:37.184Z,70.94
2022-11-17T01:12:58.274Z,70.95
2022-11-17T01:13:19.378Z,71.05
2022-11-17T01:13:40.405Z,71.08
2022-11-17T01:14:01.478Z,71.10
2022-11-17T01:14:22.528Z,71.07
2022-11-17T01:14:43.560Z,71.05
2022-11-17T01:15:04.648Z,71.12
2022-11-17T01:15:25.671Z,71.11
2022-11-17T01:15:46.728Z,71.07
2022-11-17T01:16:07.782Z,71.13
2022-11-17T01:16:28.832Z,71.14
2022-11-17T01:16:49.913Z,71.14
2022-11-17T01:17:10.975Z,71.07
2022-11-17T01:17:32.036Z,71.06
2022-11-17T01:17:53.105Z,71.00
2022-11-17T01:18:14.179Z,70.97
2022-11-17T01:18:35.189Z,70.95
2022-11-17T01:18:56.241Z,70.93
2022-11-17T01:19:17.358Z,70.82
2022-11-17T01:19:38.384Z,70.85
2022-11-17T01:19:59.448Z,70.84
2022-11-17T01:20:20.565Z,70.80
2022-11-17T01:20:41.582Z,70.73
2022-11-17T01:21:02.652Z,70.77
2022-11-17T01:21:23.700Z,70.78
2022-11-17T01:21:44.742Z,70.75
2022-11-17T01:22:05.825Z,70.74
2022-11-17T01:22:26.917Z,70.75
2022-11-17T01:22:47.930Z,70.75
2022-11-17T01:23:08.991Z,70.76
2022-11-17T01:23:30.034Z,70.70
2022-11-17T01:23:51.093Z,70.69
2022-11-17T01:24:12.165Z,70.72
2022-11-17T01:24:33.220Z,70.75
2022-11-17T01:24:54.263Z,70.71
2022-11-17T01:25:15.326Z,70.74
2022-11-17T01:25:36.377Z,70.75
2022-11-17T01:25:57.584Z,70.69
2022-11-17T01:26:18.620Z,70.70
2022-11-17T01:26:39.675Z,70.67
2022-11-17T01:27:00.749Z,70.71
2022-11-17T01:27:21.787Z,70.66
2022-11-17T01:27:42.844Z,70.70
2022-11-17T01:28:03.997Z,70.69
2022-11-17T01:28:25.004Z,70.71
2022-11-17T01:28:46.056Z,70.73
2022-11-17T01:29:07.185Z,70.76
2022-11-17T01:29:28.203Z,70.73
2022-11-17T01:29:49.262Z,70.76
2022-11-17T01:30:10.334Z,70.77
2022-11-17T01:30:31.366Z,70.77
2022-11-17T01:30:52.440Z,70.76
2022-11-17T01:31:13.504Z,70.73
2022-11-17T01:31:34.528Z,70.79
2022-11-17T01:31:55.578Z,70.80
2022-11-17T01:32:16.714Z,70.77
2022-11-17T01:32:37.752Z,70.74
2022-11-17T01:32:58.826Z,70.73
2022-11-17T01:33:19.876Z,70.71
2022-11-17T01:33:40.927Z,70.71
2022-11-17T01:34:01.972Z,70.71
2022-11-17T01:34:23.036Z,70.75
2022-11-17T01:34:44.083Z,70.67
2022-11-17T01:35:05.131Z,70.66
2022-11-17T01:35:26.186Z,70.66
2022-11-17T01:35:47.276Z,70.67
2022-11-17T01:36:08.297Z,70.69
2022-11-17T01:36:29.365Z,70.67
2022-11-17T01:36:50.422Z,70.62
2022-11-17T01:37:11.479Z,70.60
2022-11-17T01:37:32.538Z,70.63
2022-11-17T01:37:53.655Z,70.61
2022-11-17T01:38:14.671Z,70.60
2022-11-17T01:38:35.721Z,70.66
2022-11-17T01:38:56.806Z,70.68
2022-11-17T01:39:17.881Z,70.67
2022-11-17T01:39:38.924Z,70.63
2022-11-17T01:40:00.021Z,70.68
2022-11-17T01:40:21.076Z,70.73
2022-11-17T01:40:42.197Z,70.70
2022-11-17T01:41:03.216Z,70.72
2022-11-17T01:41:24.272Z,70.81
2022-11-17T01:41:45.339Z,70.75
2022-11-17T01:42:06.410Z,70.71
2022-11-17T01:42:27.497Z,70.75
2022-11-17T01:42:48.529Z,70.77
2022-11-17T01:43:09.708Z,70.78
2022-11-17T01:43:30.711Z,70.77
2022-11-17T01:43:51.759Z,70.75
2022-11-17T01:44:12.823Z,70.77
2022-11-17T01:44:33.892Z,70.76
2022-11-17T01:44:54.933Z,70.77
2022-11-17T01:45:15.993Z,70.86
2022-11-17T01:45:37.036Z,70.83
2022-11-17T01:45:58.114Z,70.83
2022-11-17T01:46:19.203Z,70.81
2022-11-17T01:46:40.269Z,70.83
2022-11-17T01:47:01.479Z,70.76
2022-11-17T01:47:22.488Z,70.82
2022-11-17T01:47:43.535Z,70.81
2022-11-17T01:48:04.594Z,70.78
2022-11-17T01:48:25.681Z,70.77
2022-11-17T01:48:46.709Z,70.74
2022-11-17T01:49:07.762Z,70.73
2022-11-17T01:49:28.817Z,70.67
2022-11-17T01:49:49.865Z,70.76
2022-11-17T01:50:10.909Z,70.76
2022-11-17T01:50:32.018Z,70.85
2022-11-17T01:50:53.070Z,70.82
2022-11-17T01:51:14.149Z,70.76
2022-11-17T01:51:35.204Z,70.81
2022-11-17T01:51:56.260Z,70.79
2022-11-17T01:52:17.326Z,70.83
2022-11-17T01:52:38.486Z,70.83
2022-11-17T01:52:59.548Z,70.78
2022-11-17T01:53:20.582Z,70.79
2022-11-17T01:53:41.644Z,70.79
2022-11-17T01:54:02.673Z,70.74
2022-11-17T01:54:23.753Z,70.72
2022-11-17T01:54:44.801Z,70.75
2022-11-17T01:55:05.870Z,70.69
2022-11-17T01:55:26.915Z,70.72
2022-11-17T01:55:47.981Z,70.76
2022-11-17T01:56:09.028Z,70.81
2022-11-17T01:56:30.084Z,70.80
2022-11-17T01:56:51.234Z,70.78
2022-11-17T01:57:12.240Z,70.83
2022-11-17T01:57:33.292Z,70.82
2022-11-17T01:57:54.370Z,70.79
2022-11-17T01:58:15.539Z,70.80
2022-11-17T01:58:36.551Z,70.76
2022-11-17T01:58:57.652Z,70.75
2022-11-17T01:59:18.674Z,70.71
2022-11-17T01:59:39.727Z,70.71
2022-11-17T02:00:00.771Z,70.71
2022-11-17T02:00:21.820Z,70.73
2022-11-17T02:00:42.870Z,70.78
2022-11-17T02:01:03.910Z,70.82
2022-11-17T02:01:25.066Z,70.81
2022-11-17T02:01:46.137Z,70.78
2022-11-17T02:02:07.221Z,70.79
2022-11-17T02:02:28.307Z,70.74
2022-11-17T02:02:49.368Z,70.72
2022-11-17T02:03:10.412Z,70.67
2022-11-17T02:03:31.538Z,70.73
2022-11-17T02:03:52.654Z,70.72
2022-11-17T02:04:13.692Z,70.75
2022-11-17T02:04:34.741Z,70.73
2022-11-17T02:04:55.792Z,70.68
2022-11-17T02:05:16.846Z,70.72
2022-11-17T02:05:37.945Z,70.71
2022-11-17T02:05:58.990Z,70.77
2022-11-17T02:06:20.024Z,70.79
2022-11-17T02:06:41.110Z,70.81
2022-11-17T02:07:02.282Z,70.78
2022-11-17T02:07:23.416Z,70.81
2022-11-17T02:07:44.498Z,70.78
2022-11-17T02:08:05.551Z,70.78
2022-11-17T02:08:26.601Z,70.75
2022-11-17T02:08:47.716Z,70.71
2022-11-17T02:09:08.747Z,70.74
2022-11-17T02:09:29.786Z,70.80
2022-11-17T02:09:50.838Z,70.79
2022-11-17T02:10:11.907Z,70.81
2022-11-17T02:10:32.952Z,70.81
2022-11-17T02:10:54.019Z,70.80
2022-11-17T02:11:15.146Z,70.85
2022-11-17T02:11:36.320Z,70.86
2022-11-17T02:11:57.342Z,70.80
2022-11-17T02:12:18.401Z,70.84
2022-11-17T02:12:39.448Z,70.83
2022-11-17T02:13:00.519Z,70.81
2022-11-17T02:13:21.596Z,70.82
2022-11-17T02:13:42.635Z,70.87
2022-11-17T02:14:03.675Z,70.89
2022-11-17T02:14:24.724Z,70.88
2022-11-17T02:14:45.820Z,70.88
2022-11-17T02:15:06.826Z,70.91
2022-11-17T02:15:27.891Z,70.95
2022-11-17T02:15:48.968Z,70.92
2022-11-17T02:16:10.027Z,71.01
2022-11-17T02:16:31.080Z,70.91
2022-11-17T02:16:52.136Z,70.98
2022-11-17T02:17:14.526Z,70.98
2022-11-17T02:17:35.664Z,70.96
2022-11-17T02:17:56.708Z,71.08
2022-11-17T02:18:18.585Z,71.05
2022-11-17T02:18:39.647Z,71.07
2022-11-17T02:19:00.684Z,71.10
2022-11-17T02:19:21.735Z,71.13
2022-11-17T02:19:42.780Z,71.19
2022-11-17T02:20:03.862Z,71.20
2022-11-17T02:20:24.894Z,71.19
2022-11-17T02:20:45.951Z,71.20
2022-11-17T02:21:07.014Z,71.20
2022-11-17T02:21:28.053Z,71.22
2022-11-17T02:21:49.112Z,71.24
2022-11-17T02:22:10.189Z,71.27
2022-11-17T02:22:31.242Z,71.28
2022-11-17T02:22:52.293Z,71.33
2022-11-17T02:23:13.336Z,71.32
2022-11-17T02:23:34.871Z,71.27
2022-11-17T02:23:56.137Z,71.25
2022-11-17T02:24:17.201Z,71.26
2022-11-17T02:24:38.256Z,71.30
2022-11-17T02:24:59.294Z,71.30
2022-11-17T02:25:24.303Z,71.30
2022-11-17T02:25:47.414Z,71.35
2022-11-17T02:26:08.442Z,71.33
2022-11-17T02:26:29.478Z,71.32
2022-11-17T02:26:50.536Z,71.28
2022-11-17T02:27:11.597Z,71.30
2022-11-17T02:27:32.656Z,71.25
2022-11-17T02:27:53.739Z,71.30
2022-11-17T02:28:14.775Z,71.33
2022-11-17T02:28:35.935Z,71.34
2022-11-17T02:28:56.950Z,71.42
2022-11-17T02:29:18.013Z,71.43
2022-11-17T02:29:39.048Z,71.49
2022-11-17T02:30:00.104Z,71.48
2022-11-17T02:30:21.167Z,71.48
2022-11-17T02:30:42.223Z,71.43
2022-11-17T02:31:03.280Z,71.39
2022-11-17T02:31:24.329Z,71.35
2022-11-17T02:31:45.397Z,71.38
2022-11-17T02:32:06.432Z,71.40
2022-11-17T02:32:27.499Z,71.50
2022-11-17T02:32:48.563Z,71.56
2022-11-17T02:33:09.628Z,71.64
2022-11-17T02:33:30.677Z,71.49
2022-11-17T02:33:51.723Z,71.40
2022-11-17T02:34:12.775Z,71.35
2022-11-17T02:34:33.844Z,71.33
2022-11-17T02:34:54.908Z,71.38
2022-11-17T02:35:15.953Z,71.33
2022-11-17T02:35:37.023Z,71.36
2022-11-17T02:35:58.071Z,71.24
2022-11-17T02:36:19.131Z,71.33
2022-11-17T02:36:40.197Z,71.34
2022-11-17T02:37:01.257Z,71.29
2022-11-17T02:37:22.323Z,71.35
2022-11-17T02:37:43.376Z,71.34
2022-11-17T02:38:04.449Z,71.27
2022-11-17T02:38:25.486Z,71.24
2022-11-17T02:38:46.547Z,71.30
2022-11-17T02:39:07.647Z,71.28
2022-11-17T02:39:28.676Z,71.26
2022-11-17T02:39:49.724Z,71.25
2022-11-17T02:40:10.771Z,71.19
2022-11-17T02:40:31.829Z,71.17
2022-11-17T02:40:52.875Z,71.18
2022-11-17T02:41:13.932Z,71.21
2022-11-17T02:41:34.994Z,71.21
2022-11-17T02:41:56.044Z,71.18
2022-11-17T02:42:17.089Z,71.18
2022-11-17T02:42:38.166Z,71.16
2022-11-17T02:42:59.200Z,71.18
2022-11-17T02:43:20.254Z,71.19
2022-11-17T02:43:41.368Z,71.17
2022-11-17T02:44:02.402Z,71.17
2022-11-17T02:44:23.460Z,71.13
2022-11-17T02:44:44.503Z,71.19
2022-11-17T02:45:05.579Z,71.22
2022-11-17T02:45:26.601Z,71.22
2022-11-17T02:45:47.658Z,71.25
2022-11-17T02:46:08.704Z,71.26
2022-11-17T02:46:29.768Z,71.23
2022-11-17T02:46:50.831Z,71.18
2022-11-17T02:47:11.909Z,71.19
2022-11-17T02:47:32.937Z,71.13
2022-11-17T02:47:53.987Z,71.09
2022-11-17T02:48:15.031Z,71.06
2022-11-17T02:48:36.142Z,71.09
2022-11-17T02:48:57.198Z,71.11
2022-11-17T02:49:18.256Z,71.13
2022-11-17T02:49:39.315Z,71.16
2022-11-17T02:50:00.357Z,71.14
2022-11-17T02:50:26.763Z,71.19
2022-11-17T02:50:48.496Z,71.24
2022-11-17T02:51:09.528Z,71.28
2022-11-17T02:51:30.576Z,71.29
2022-11-17T02:51:51.621Z,71.29
2022-11-17T02:52:12.678Z,71.33
2022-11-17T02:52:33.748Z,71.27
2022-11-17T02:52:54.793Z,71.25
2022-11-17T02:53:15.862Z,71.28
2022-11-17T02:53:37.268Z,71.30
2022-11-17T02:53:58.527Z,71.40
2022-11-17T02:54:19.545Z,71.41
2022-11-17T02:54:40.600Z,71.47
2022-11-17T02:55:01.664Z,71.45
2022-11-17T02:55:22.715Z,71.45
2022-11-17T02:55:43.759Z,71.45
2022-11-17T02:56:04.868Z,71.48
2022-11-17T02:56:25.896Z,71.45
2022-11-17T02:56:46.980Z,71.53
2022-11-17T02:57:08.039Z,71.59
2022-11-17T02:57:29.078Z,71.61
2022-11-17T02:57:50.139Z,71.60
2022-11-17T02:58:11.191Z,71.58
2022-11-17T02:58:32.257Z,71.58
2022-11-17T02:58:53.414Z,71.61
2022-11-17T02:59:14.420Z,71.61
2022-11-17T02:59:35.472Z,71.63
2022-11-17T02:59:56.511Z,71.60
2022-11-17T03:00:17.561Z,71.61
2022-11-17T03:00:38.644Z,71.64
2022-11-17T03:00:59.685Z,71.64
2022-11-17T03:01:20.824Z,71.68
2022-11-17T03:01:41.919Z,71.76
2022-11-17T03:02:03.118Z,71.79
2022-11-17T03:02:24.172Z,71.94
2022-11-17T03:02:45.221Z,71.94
2022-11-17T03:03:06.351Z,71.92
2022-11-17T03:03:27.360Z,71.91
2022-11-17T03:03:48.398Z,71.98
2022-11-17T03:04:09.449Z,72.07
2022-11-17T03:04:30.552Z,72.06
2022-11-17T03:04:51.571Z,72.04
2022-11-17T03:05:12.643Z,72.03
2022-11-17T03:05:33.673Z,71.98
2022-11-17T03:05:54.765Z,71.93
2022-11-17T03:06:15.818Z,72.00
2022-11-17T03:06:36.872Z,71.99
2022-11-17T03:06:58.028Z,72.06
2022-11-17T03:07:19.221Z,72.11
2022-11-17T03:07:40.248Z,72.20
2022-11-17T03:08:01.301Z,72.24
2022-11-17T03:08:22.373Z,72.25
2022-11-17T03:08:43.400Z,72.29
2022-11-17T03:09:04.453Z,72.36
2022-11-17T03:09:25.528Z,72.44
2022-11-17T03:09:46.577Z,72.44
2022-11-17T03:10:07.629Z,72.34
2022-11-17T03:10:28.670Z,72.39
2022-11-17T03:10:49.755Z,72.38
2022-11-17T03:11:10.810Z,72.43
2022-11-17T03:11:31.866Z,72.52
2022-11-17T03:11:52.910Z,72.63
2022-11-17T03:12:13.965Z,72.66
2022-11-17T03:12:35.053Z,72.65
2022-11-17T03:12:56.112Z,72.68
2022-11-17T03:13:17.159Z,72.76
2022-11-17T03:13:38.325Z,72.79
2022-11-17T03:13:59.471Z,72.79
2022-11-17T03:14:20.507Z,72.75
2022-11-17T03:14:41.574Z,72.74
2022-11-17T03:15:02.610Z,72.69
2022-11-17T03:15:23.660Z,72.68
2022-11-17T03:15:44.749Z,72.75
2022-11-17T03:16:05.838Z,72.77
2022-11-17T03:16:26.856Z,72.88
2022-11-17T03:16:47.919Z,72.92
2022-11-17T03:17:08.963Z,72.93
2022-11-17T03:17:30.030Z,72.96
2022-11-17T03:17:51.079Z,72.97
2022-11-17T03:18:12.180Z,73.05
2022-11-17T03:18:33.210Z,73.07
2022-11-17T03:18:54.261Z,73.08
2022-11-17T03:19:15.403Z,73.10
2022-11-17T03:19:36.421Z,73.08
2022-11-17T03:19:57.483Z,73.09
2022-11-17T03:20:18.524Z,73.14
2022-11-17T03:20:39.576Z,73.13
2022-11-17T03:21:00.646Z,73.09
2022-11-17T03:21:21.681Z,73.08
2022-11-17T03:21:42.740Z,73.09
2022-11-17T03:22:03.860Z,73.14
2022-11-17T03:22:24.883Z,73.11
2022-11-17T03:22:45.964Z,73.13
2022-11-17T03:23:07.023Z,73.11
2022-11-17T03:23:28.052Z,73.09
2022-11-17T03:23:49.111Z,73.13
2022-11-17T03:24:10.149Z,73.12
2022-11-17T03:24:31.208Z,73.12
2022-11-17T03:24:52.316Z,73.10
2022-11-17T03:25:13.362Z,73.10
2022-11-17T03:25:34.406Z,73.08
2022-11-17T03:25:55.521Z,73.09
2022-11-17T03:26:16.533Z,73.03
2022-11-17T03:26:37.582Z,73.05
2022-11-17T03:26:58.635Z,73.10
2022-11-17T03:27:19.687Z,73.19
2022-11-17T03:27:40.747Z,73.18
2022-11-17T03:28:01.814Z,73.25
2022-11-17T03:28:22.862Z,73.31
2022-11-17T03:28:43.977Z,73.34
2022-11-17T03:29:05.127Z,73.33
2022-11-17T03:29:26.120Z,73.35
2022-11-17T03:29:47.171Z,73.47
2022-11-17T03:30:08.218Z,73.44
2022-11-17T03:30:34.614Z,73.38
2022-11-17T03:30:56.254Z,73.34
2022-11-17T03:31:17.305Z,73.27
2022-11-17T03:31:38.346Z,73.23
2022-11-17T03:31:59.487Z,73.24
2022-11-17T03:32:20.500Z,73.26
2022-11-17T03:32:41.545Z,73.29
2022-11-17T03:33:02.698Z,73.39
2022-11-17T03:33:23.737Z,73.40
2022-11-17T03:33:44.779Z,73.36
2022-11-17T03:34:05.837Z,73.34
2022-11-17T03:34:26.881Z,73.26
2022-11-17T03:34:47.936Z,73.17
2022-11-17T03:35:09.058Z,73.13
2022-11-17T03:35:30.093Z,73.16
2022-11-17T03:35:51.128Z,73.28
2022-11-17T03:36:12.268Z,73.29
2022-11-17T03:36:33.305Z,73.29
2022-11-17T03:36:54.351Z,73.28
2022-11-17T03:37:15.400Z,73.26
2022-11-17T03:37:36.474Z,73.31
2022-11-17T03:37:57.521Z,73.34
2022-11-17T03:38:18.586Z,73.40
2022-11-17T03:38:39.655Z,73.45
2022-11-17T03:39:00.688Z,73.48
2022-11-17T03:39:21.730Z,73.46
2022-11-17T03:39:42.796Z,73.45
2022-11-17T03:40:03.836Z,73.46
2022-11-17T03:40:24.903Z,73.38
2022-11-17T03:40:45.954Z,73.40
2022-11-17T03:41:07.034Z,73.36
2022-11-17T03:41:28.046Z,73.36
2022-11-17T03:41:49.136Z,73.41
2022-11-17T03:42:10.172Z,73.43
2022-11-17T03:42:31.228Z,73.41
2022-11-17T03:42:52.405Z,73.49
2022-11-17T03:43:13.403Z,73.50
2022-11-17T03:43:34.842Z,73.55
2022-11-17T03:43:56.026Z,73.60
2022-11-17T03:44:17.197Z,73.51
2022-11-17T03:44:38.201Z,73.41
2022-11-17T03:44:59.251Z,73.44
2022-11-17T03:45:20.302Z,73.37
2022-11-17T03:45:41.360Z,73.36
2022-11-17T03:46:02.415Z,73.35
2022-11-17T03:46:23.515Z,73.35
2022-11-17T03:46:44.526Z,73.41
2022-11-17T03:47:05.575Z,73.36
2022-11-17T03:47:26.632Z,73.39
2022-11-17T03:47:47.671Z,73.42
2022-11-17T03:48:08.746Z,73.47
2022-11-17T03:48:29.814Z,73.42
2022-11-17T03:48:50.852Z,73.43
2022-11-17T03:49:11.903Z,73.39
2022-11-17T03:49:32.992Z,73.40
2022-11-17T03:49:54.005Z,73.38
2022-11-17T03:50:15.067Z,73.42
2022-11-17T03:50:36.117Z,73.46
2022-11-17T03:50:57.176Z,73.42
2022-11-17T03:51:18.289Z,73.41
2022-11-17T03:51:39.305Z,73.42
2022-11-17T03:52:00.370Z,73.39
2022-11-17T03:52:21.418Z,73.40
2022-11-17T03:52:42.469Z,73.47
2022-11-17T03:53:03.534Z,73.49
2022-11-17T03:53:24.568Z,73.46
2022-11-17T03:53:45.650Z,73.44
2022-11-17T03:54:06.723Z,73.39
2022-11-17T03:54:27.788Z,73.34
2022-11-17T03:54:48.887Z,73.28
2022-11-17T03:55:09.921Z,73.26
2022-11-17T03:55:30.969Z,73.29
2022-11-17T03:55:52.005Z,73.30
2022-11-17T03:56:13.058Z,73.38
2022-11-17T03:56:34.191Z,73.38
2022-11-17T03:56:55.210Z,73.40
2022-11-17T03:57:16.259Z,73.45
2022-11-17T03:57:37.313Z,73.51
2022-11-17T03:57:58.377Z,73.54
2022-11-17T03:58:19.470Z,73.55
2022-11-17T03:58:40.487Z,73.48
2022-11-17T03:59:01.547Z,73.48
2022-11-17T03:59:22.720Z,73.47
2022-11-17T03:59:43.718Z,73.45
2022-11-17T04:00:04.774Z,73.46
2022-11-17T04:00:25.824Z,73.41
2022-11-17T04:00:46.884Z,73.39
2022-11-17T04:01:07.955Z,73.36
2022-11-17T04:01:29.062Z,73.34
2022-11-17T04:01:50.140Z,73.33
2022-11-17T04:02:11.274Z,73.26
2022-11-17T04:02:32.329Z,73.26
2022-11-17T04:02:53.386Z,73.22
2022-11-17T04:03:14.445Z,73.20
2022-11-17T04:03:35.809Z,73.19
2022-11-17T04:03:57.092Z,73.19
2022-11-17T04:04:18.203Z,73.14
2022-11-17T04:04:39.238Z,73.06
2022-11-17T04:05:00.297Z,73.02
2022-11-17T04:05:21.356Z,73.03
2022-11-17T04:05:42.428Z,73.08
2022-11-17T04:06:03.468Z,73.11
2022-11-17T04:06:24.526Z,73.02
2022-11-17T04:06:45.579Z,72.98
2022-11-17T04:07:06.688Z,72.98
2022-11-17T04:07:27.788Z,72.88
2022-11-17T04:07:48.906Z,72.86
2022-11-17T04:08:09.958Z,72.76
2022-11-17T04:08:31.001Z,72.88
2022-11-17T04:08:52.038Z,72.89
2022-11-17T04:09:13.142Z,72.81
2022-11-17T04:09:34.206Z,72.72
2022-11-17T04:09:55.260Z,72.67
2022-11-17T04:10:16.311Z,72.64
2022-11-17T04:10:37.394Z,72.63
2022-11-17T04:10:58.496Z,72.64
2022-11-17T04:11:19.502Z,72.63
2022-11-17T04:11:40.546Z,72.66
2022-11-17T04:12:01.618Z,72.63
2022-11-17T04:12:22.653Z,72.58
2022-11-17T04:12:43.700Z,72.64
2022-11-17T04:13:04.893Z,72.64
2022-11-17T04:13:25.955Z,72.65
2022-11-17T04:13:47.046Z,72.64
2022-11-17T04:14:08.081Z,72.64
2022-11-17T04:14:29.255Z,72.66
2022-11-17T04:14:50.263Z,72.62
2022-11-17T04:15:11.532Z,72.69
2022-11-17T04:15:32.613Z,72.72
2022-11-17T04:15:53.679Z,72.70
2022-11-17T04:16:14.762Z,72.62
2022-11-17T04:16:35.794Z,72.54
2022-11-17T04:16:56.842Z,72.54
2022-11-17T04:17:17.897Z,72.48
2022-11-17T04:17:38.971Z,72.52
2022-11-17T04:18:00.028Z,72.53
2022-11-17T04:18:21.069Z,72.56
2022-11-17T04:18:42.130Z,72.52
2022-11-17T04:19:03.174Z,72.57
2022-11-17T04:19:24.235Z,72.48
2022-11-17T04:19:45.269Z,72.44
2022-11-17T04:20:06.320Z,72.37
2022-11-17T04:20:27.400Z,72.38
2022-11-17T04:20:48.434Z,72.32
2022-11-17T04:21:09.501Z,72.29
2022-11-17T04:21:30.552Z,72.31
2022-11-17T04:21:51.595Z,72.27
2022-11-17T04:22:12.681Z,72.28
2022-11-17T04:22:33.770Z,72.24
2022-11-17T04:22:54.851Z,72.20
2022-11-17T04:23:15.892Z,72.24
2022-11-17T04:23:37.541Z,72.24
2022-11-17T04:23:58.717Z,72.20
2022-11-17T04:24:19.833Z,72.12
2022-11-17T04:24:40.865Z,72.16
2022-11-17T04:25:01.913Z,72.16
2022-11-17T04:25:23.023Z,72.14
2022-11-17T04:25:44.045Z,72.10
2022-11-17T04:26:05.114Z,72.10
2022-11-17T04:26:26.151Z,72.04
2022-11-17T04:26:47.202Z,71.93
2022-11-17T04:27:08.262Z,71.90
2022-11-17T04:27:29.337Z,71.93
2022-11-17T04:27:50.359Z,71.84
2022-11-17T04:28:11.424Z,71.85
2022-11-17T04:28:32.459Z,71.93
2022-11-17T04:28:53.530Z,71.91
2022-11-17T04:29:14.570Z,71.90
2022-11-17T04:29:35.729Z,71.92
2022-11-17T04:29:56.737Z,71.90
2022-11-17T04:30:17.788Z,71.89
2022-11-17T04:30:38.841Z,71.88
2022-11-17T04:30:59.931Z,71.82
2022-11-17T04:31:20.954Z,71.80
2022-11-17T04:31:42.011Z,71.79